Terminal Aerodrome Forecast
Issued by NWS Tuscon, AZ

Home | Current Version | Previous Version | Text Only | Print | Product List | Glossary On
Versions: 1 2 3 4 5 6 7 8 9 10 11 12 13
000
FTUS45 KTWC 302330
TAFDUG
TAF
KDUG 302330Z 3100/3124 25020G28KT P6SM SKC
     FM310300 21013G21KT P6SM SKC
     FM310600 18016G24KT P6SM SCT250
     FM311400 21020G28KT P6SM SCT250
     FM311800 26022G32KT P6SM SCT080=

USA.gov is the U.S. government's official web portal to all federal, state and local government web resources and services.